Time;durP1;ratioP1;P1;durP2;ratioP2;P2;SDS_P1;SDS_P2;PMS_P1;PMS_P2;Temp;Humidity;BMP_temperature;BMP_pressure;BME280_temperature;BME280_humidity;BME280_pressure;Samples;Min_cycle;Max_cycle;Signal;HPM_P1;HPM_P2
2022/10/15 00:02:03;;;;;;;27.10;14.18;;;;;;;11.08;100.00;100668.06;5089222;28;20574;-66
2022/10/15 00:04:30;;;;;;;22.20;13.10;;;;;;;11.02;100.00;100674.22;5087798;28;20055;-67
2022/10/15 00:06:55;;;;;;;23.45;12.55;;;;;;;10.95;100.00;100672.38;5088968;28;20039;-67
2022/10/15 00:09:20;;;;;;;22.27;11.73;;;;;;;10.90;100.00;100672.16;5089003;28;20032;-66
2022/10/15 00:11:46;;;;;;;25.20;13.15;;;;;;;10.84;100.00;100667.63;5087708;28;20042;-67
2022/10/15 00:14:11;;;;;;;22.42;13.40;;;;;;;10.90;100.00;100680.16;5088928;28;20031;-67
2022/10/15 00:16:36;;;;;;;25.33;12.80;;;;;;;10.88;100.00;100666.19;5087732;28;20112;-67
2022/10/15 00:19:02;;;;;;;25.83;15.50;;;;;;;10.95;100.00;100671.53;5088973;28;20042;-67
2022/10/15 00:21:27;;;;;;;27.75;15.85;;;;;;;11.01;100.00;100668.06;5093097;28;20469;-67
2022/10/15 00:23:53;;;;;;;25.50;16.35;;;;;;;11.04;100.00;100666.84;5093007;28;20390;-67
2022/10/15 00:26:24;;;;;;;26.17;15.32;;;;;;;11.12;100.00;100663.97;5092696;28;20123;-66
2022/10/15 00:28:52;;;;;;;29.63;17.63;;;;;;;11.14;100.00;100672.59;5092787;28;20020;-67
2022/10/15 00:31:19;;;;;;;27.50;17.95;;;;;;;11.16;100.00;100676.72;5092917;28;20149;-66
2022/10/15 00:33:47;;;;;;;27.77;17.48;;;;;;;11.18;100.00;100679.16;5092929;28;20441;-67
2022/10/15 00:36:15;;;;;;;25.70;15.95;;;;;;;11.18;100.00;100679.97;5092661;28;20023;-66
2022/10/15 00:38:41;;;;;;;28.88;16.45;;;;;;;11.20;100.00;100677.09;5092500;28;20105;-66
2022/10/15 00:41:09;;;;;;;26.25;13.82;;;;;;;11.19;100.00;100675.47;5091341;28;20069;-66
2022/10/15 00:43:55;;;;;;;22.50;12.30;;;;;;;11.19;100.00;100678.16;5092690;28;20020;-67
2022/10/15 00:46:29;;;;;;;23.30;12.45;;;;;;;11.21;100.00;100678.75;5092071;28;20093;-66
2022/10/15 00:49:17;;;;;;;27.55;16.13;;;;;;;11.23;100.00;100681.22;5092211;28;20081;-67
2022/10/15 00:51:48;;;;;;;31.98;18.45;;;;;;;11.27;100.00;100682.47;5092350;28;20028;-67
2022/10/15 00:54:15;;;;;;;24.63;14.43;;;;;;;11.32;100.00;100686.16;5092401;28;20062;-67
2022/10/15 00:56:43;;;;;;;25.95;15.43;;;;;;;11.33;100.00;100685.13;5092361;28;20028;-67
2022/10/15 00:59:11;;;;;;;29.33;17.02;;;;;;;11.28;100.00;100670.75;5092196;28;20062;-66
2022/10/15 01:01:37;;;;;;;25.48;15.85;;;;;;;11.37;100.00;100674.84;5092266;28;20024;-67
2022/10/15 01:04:04;;;;;;;26.17;16.25;;;;;;;11.39;100.00;100676.28;5091983;28;20430;-67
2022/10/15 01:06:30;;;;;;;28.23;17.88;;;;;;;11.41;100.00;100671.56;5092125;28;20039;-67
2022/10/15 01:08:55;;;;;;;28.42;17.45;;;;;;;11.41;100.00;100673.41;5091803;28;20028;-67
2022/10/15 01:11:32;;;;;;;28.15;16.15;;;;;;;11.43;100.00;100676.69;5092040;28;20028;-67
2022/10/15 01:14:08;;;;;;;28.92;17.98;;;;;;;11.45;100.00;100677.31;5092070;28;20028;-66
2022/10/15 01:16:53;;;;;;;25.23;16.58;;;;;;;11.47;100.00;100667.22;5091897;28;20427;-67
2022/10/15 01:19:40;;;;;;;26.88;16.65;;;;;;;11.50;100.00;100672.19;5091652;28;20028;-67
2022/10/15 01:22:17;;;;;;;28.58;16.98;;;;;;;11.52;100.00;100664.75;5074081;28;20417;-67
2022/10/15 01:25:33;;;;;;;30.52;18.60;;;;;;;11.55;100.00;100655.50;5091829;28;20024;-66
2022/10/15 01:28:13;;;;;;;29.25;19.63;;;;;;;11.57;100.00;100658.81;5065020;28;20035;-67
2022/10/15 01:30:45;;;;;;;31.15;19.38;;;;;;;11.60;100.00;100655.72;5091417;28;20028;-67
2022/10/15 01:33:11;;;;;;;28.58;18.17;;;;;;;11.62;100.00;100653.66;5091541;28;20664;-66
2022/10/15 01:35:46;;;;;;;31.55;19.90;;;;;;;11.64;100.00;100648.94;5091552;28;20111;-67
2022/10/15 01:38:23;;;;;;;28.50;17.75;;;;;;;11.66;100.00;100644.22;5091033;28;20117;-71
2022/10/15 01:41:01;;;;;;;32.72;20.80;;;;;;;11.69;100.00;100645.66;5091531;28;20043;-71
2022/10/15 01:43:44;;;;;;;28.85;20.00;;;;;;;11.71;100.00;100643.56;5091499;28;20468;-71
2022/10/15 01:46:15;;;;;;;34.17;18.95;;;;;;;11.63;100.00;100629.41;5091430;28;20055;-71
2022/10/15 01:48:41;;;;;;;32.40;19.52;;;;;;;11.72;100.00;100639.88;5091294;28;20028;-72
2022/10/15 01:51:09;;;;;;;30.23;18.73;;;;;;;11.74;100.00;100652.00;5091204;28;20528;-71
2022/10/15 01:53:36;;;;;;;28.52;18.65;;;;;;;11.76;100.00;100655.28;5091240;28;20471;-71
2022/10/15 01:56:07;;;;;;;28.92;17.17;;;;;;;11.78;100.00;100647.84;5091199;28;20024;-72
2022/10/15 01:58:36;;;;;;;29.42;18.48;;;;;;;11.77;100.00;100637.41;5091053;28;20028;-71
2022/10/15 02:01:02;;;;;;;29.45;18.98;;;;;;;11.83;100.00;100644.56;5090840;28;20097;-71
2022/10/15 02:03:27;;;;;;;31.45;18.92;;;;;;;11.83;100.00;100639.22;5090671;28;20131;-71
2022/10/15 02:06:05;;;;;;;29.50;17.77;;;;;;;11.87;100.00;100634.28;5089645;28;20114;-71
2022/10/15 02:08:43;;;;;;;27.20;16.67;;;;;;;11.88;100.00;100633.28;5090520;28;20768;-72
2022/10/15 02:11:13;;;;;;;27.02;16.42;;;;;;;11.90;100.00;100640.06;5090748;28;20154;-71
2022/10/15 02:13:59;;;;;;;25.02;16.17;;;;;;;11.92;100.00;100635.34;5090841;28;20029;-71
2022/10/15 02:16:37;;;;;;;26.17;16.92;;;;;;;11.91;100.00;100630.19;5090638;28;20032;-71
2022/10/15 02:19:24;;;;;;;27.75;17.23;;;;;;;11.95;100.00;100628.75;5090646;28;20020;-71
2022/10/15 02:22:21;;;;;;;27.13;17.25;;;;;;;11.89;100.00;100616.22;5090857;28;20053;-71
2022/10/15 02:24:55;;;;;;;26.58;16.55;;;;;;;11.94;100.00;100619.06;5082779;28;20044;-72
2022/10/15 02:27:21;;;;;;;25.73;16.42;;;;;;;11.98;100.00;100620.31;5092043;28;20077;-71
2022/10/15 02:29:49;;;;;;;26.23;18.65;;;;;;;11.96;100.00;100612.47;5090293;28;20020;-71
2022/10/15 02:32:15;;;;;;;25.75;15.95;;;;;;;11.97;100.00;100616.81;5090097;28;20032;-71
2022/10/15 02:34:43;;;;;;;29.50;16.88;;;;;;;11.96;100.00;100612.47;5090488;28;20065;-71
2022/10/15 02:37:09;;;;;;;26.95;17.10;;;;;;;11.98;100.00;100609.63;5090387;28;20024;-71
2022/10/15 02:39:34;;;;;;;27.75;16.45;;;;;;;11.97;100.00;100610.63;5090489;28;20437;-71
2022/10/15 02:42:00;;;;;;;26.58;16.85;;;;;;;11.98;100.00;100604.25;5089730;28;20032;-71
2022/10/15 02:44:26;;;;;;;26.83;16.90;;;;;;;11.91;100.00;100587.44;5090243;28;20031;-71
2022/10/15 02:46:51;;;;;;;25.60;15.50;;;;;;;11.96;100.00;100595.63;5090297;28;20062;-71
2022/10/15 02:49:16;;;;;;;27.13;19.05;;;;;;;11.96;100.00;100591.09;5090146;28;20032;-71
2022/10/15 02:51:42;;;;;;;26.70;17.00;;;;;;;11.95;100.00;100591.34;5089830;28;20038;-71
2022/10/15 02:54:07;;;;;;;24.65;14.40;;;;;;;11.94;100.00;100589.66;5090211;28;20115;-71
2022/10/15 02:56:33;;;;;;;26.38;16.90;;;;;;;11.90;100.00;100585.81;5089994;28;20464;-71
2022/10/15 02:58:58;;;;;;;27.30;16.55;;;;;;;11.85;100.00;100573.03;5088484;28;20074;-71
2022/10/15 03:01:24;;;;;;;25.92;16.25;;;;;;;11.89;100.00;100589.47;5089905;28;20032;-71
2022/10/15 03:03:49;;;;;;;25.95;15.85;;;;;;;11.85;100.00;100576.53;5089925;28;20024;-71
2022/10/15 03:06:15;;;;;;;28.23;17.15;;;;;;;11.83;100.00;100578.56;5089882;28;20540;-72
2022/10/15 03:08:43;;;;;;;24.27;15.90;;;;;;;11.85;100.00;100570.38;5089785;28;20020;-71
2022/10/15 03:11:09;;;;;;;28.52;16.58;;;;;;;11.84;100.00;100568.72;5089728;28;20055;-71
2022/10/15 03:13:36;;;;;;;24.98;14.75;;;;;;;11.83;100.00;100565.22;5089762;28;20537;-71
2022/10/15 03:16:06;;;;;;;26.33;17.13;;;;;;;11.81;100.00;100556.59;5089791;28;20467;-72
2022/10/15 03:18:32;;;;;;;30.30;16.73;;;;;;;11.80;100.00;100551.47;5089657;28;20071;-71
2022/10/15 03:20:58;;;;;;;27.60;16.38;;;;;;;11.82;100.00;100560.91;5089796;28;20059;-72
2022/10/15 03:23:23;;;;;;;26.15;15.77;;;;;;;11.77;100.00;100550.03;5089596;28;20161;-71
2022/10/15 03:25:49;;;;;;;26.23;16.88;;;;;;;11.86;100.00;100569.34;5089611;28;20066;-71
2022/10/15 03:28:14;;;;;;;26.20;15.77;;;;;;;11.86;100.00;100572.03;5089662;28;20059;-71
2022/10/15 03:30:41;;;;;;;27.77;16.13;;;;;;;11.87;100.00;100560.31;5089433;28;20038;-71
2022/10/15 03:33:06;;;;;;;26.35;16.33;;;;;;;11.90;100.00;100569.75;5087825;28;20040;-71
2022/10/15 03:35:31;;;;;;;28.08;18.08;;;;;;;11.91;100.00;100576.75;5089473;28;20024;-72
2022/10/15 03:37:57;;;;;;;28.77;17.48;;;;;;;11.91;100.00;100574.06;5089414;28;20105;-71
2022/10/15 03:40:22;;;;;;;28.90;18.98;;;;;;;11.89;100.00;100565.44;5089537;28;20066;-71
2022/10/15 03:42:51;;;;;;;30.02;17.90;;;;;;;11.91;100.00;100561.50;5088168;28;20386;-71
2022/10/15 03:45:18;;;;;;;27.08;15.38;;;;;;;11.92;100.00;100559.66;5089431;28;20463;-71
2022/10/15 03:47:43;;;;;;;29.20;15.20;;;;;;;11.93;100.00;100567.47;5087446;28;20036;-71
2022/10/15 03:50:09;;;;;;;23.90;15.63;;;;;;;11.92;100.00;100556.97;5089396;28;20048;-71
2022/10/15 03:52:35;;;;;;;28.38;15.95;;;;;;;11.93;100.00;100556.78;5089167;28;20028;-72
2022/10/15 03:55:01;;;;;;;27.48;16.27;;;;;;;11.90;100.00;100557.22;5092761;28;20066;-71
2022/10/15 03:57:26;;;;;;;27.30;15.60;;;;;;;11.96;100.00;100558.22;5093519;28;20063;-72
2022/10/15 03:59:51;;;;;;;33.88;17.42;;;;;;;11.94;100.00;100550.41;5093472;28;20080;-71
2022/10/15 04:02:17;;;;;;;33.78;16.90;;;;;;;11.96;100.00;100555.53;5093267;28;20471;-71
2022/10/15 04:04:42;;;;;;;24.88;16.13;;;;;;;11.98;100.00;100556.16;5093463;28;20070;-71
2022/10/15 04:07:08;;;;;;;26.73;16.13;;;;;;;12.00;100.00;100551.44;5093220;28;20040;-72
2022/10/15 04:09:33;;;;;;;31.13;16.50;;;;;;;12.01;100.00;100539.69;5093192;28;20136;-71
2022/10/15 04:11:58;;;;;;;28.65;15.57;;;;;;;12.02;100.00;100546.66;5093294;28;20040;-72
2022/10/15 04:14:24;;;;;;;28.58;16.02;;;;;;;12.02;100.00;100542.13;5093216;28;20032;-71
2022/10/15 04:16:49;;;;;;;29.02;16.88;;;;;;;12.04;100.00;100544.59;5093168;28;20081;-71
2022/10/15 04:19:14;;;;;;;28.88;15.07;;;;;;;12.04;100.00;100550.75;5093133;28;20028;-72
2022/10/15 04:21:40;;;;;;;28.23;15.95;;;;;;;12.06;100.00;100555.91;5093019;28;20039;-71
2022/10/15 04:24:05;;;;;;;26.40;15.90;;;;;;;12.07;100.00;100565.56;5092880;28;20036;-71
2022/10/15 04:26:31;;;;;;;28.30;17.75;;;;;;;12.07;100.00;100566.38;5093076;28;20073;-71
2022/10/15 04:28:56;;;;;;;29.95;17.55;;;;;;;12.07;100.00;100569.03;5092950;28;20024;-71
2022/10/15 04:31:21;;;;;;;28.50;16.73;;;;;;;12.08;100.00;100561.88;5092866;28;20066;-72
2022/10/15 04:33:48;;;;;;;29.10;17.35;;;;;;;12.03;100.00;100565.16;5092641;28;20032;-71
2022/10/15 04:36:13;;;;;;;30.67;16.33;;;;;;;12.06;100.00;100577.28;5092642;28;20031;-71
2022/10/15 04:38:39;;;;;;;30.13;17.30;;;;;;;12.04;100.00;100571.31;5092538;28;20048;-71
2022/10/15 04:41:08;;;;;;;29.52;16.92;;;;;;;12.07;100.00;100573.56;5092726;28;20038;-71
2022/10/15 04:43:34;;;;;;;27.30;15.27;;;;;;;12.08;100.00;100567.22;5092727;28;20020;-71
2022/10/15 04:46:01;;;;;;;30.25;16.05;;;;;;;12.06;100.00;100561.25;5092597;28;20094;-71
2022/10/15 04:48:28;;;;;;;30.55;16.50;;;;;;;12.07;100.00;100560.22;5092618;28;20127;-71
2022/10/15 04:50:53;;;;;;;31.08;19.02;;;;;;;12.13;100.00;100563.88;5091748;28;20028;-71
2022/10/15 04:53:19;;;;;;;32.92;17.17;;;;;;;12.15;100.00;100559.13;5090510;28;20997;-71
2022/10/15 04:55:45;;;;;;;33.17;19.23;;;;;;;12.17;100.00;100570.44;5093520;28;20039;-71
2022/10/15 04:58:10;;;;;;;31.27;17.85;;;;;;;12.21;100.00;100559.13;5092349;28;20455;-71
2022/10/15 05:00:37;;;;;;;31.92;19.35;;;;;;;12.24;100.00;100558.69;5092269;28;20449;-72
2022/10/15 05:03:04;;;;;;;33.53;19.05;;;;;;;12.22;100.00;100558.06;5092309;28;20028;-71
2022/10/15 05:05:29;;;;;;;34.92;18.23;;;;;;;12.26;100.00;100553.94;5091212;28;20059;-71
2022/10/15 05:07:58;;;;;;;36.63;21.10;;;;;;;12.26;100.00;100563.78;5091990;28;20098;-72
2022/10/15 05:10:24;;;;;;;40.80;21.17;;;;;;;12.31;100.00;100565.84;5092139;28;20422;-71
2022/10/15 05:12:49;;;;;;;36.63;19.02;;;;;;;12.33;100.00;100563.78;5092099;28;20039;-72
2022/10/15 05:15:14;;;;;;;40.30;21.63;;;;;;;12.33;100.00;100563.78;5092082;28;20032;-71
2022/10/15 05:17:40;;;;;;;33.30;18.95;;;;;;;12.27;100.00;100547.56;5091960;28;20020;-71
2022/10/15 05:20:05;;;;;;;34.25;19.90;;;;;;;12.36;100.00;100563.34;5090670;28;20551;-72
2022/10/15 05:22:31;;;;;;;37.95;20.02;;;;;;;12.37;100.00;100560.47;5091813;28;20495;-72
2022/10/15 05:24:56;;;;;;;34.88;20.60;;;;;;;12.39;100.00;100568.25;5090596;28;20032;-72
2022/10/15 05:27:21;;;;;;;35.60;19.20;;;;;;;12.39;100.00;100566.41;5091920;28;20023;-71
2022/10/15 05:29:47;;;;;;;33.78;18.88;;;;;;;12.39;100.00;100563.75;5091776;28;20032;-71
2022/10/15 05:32:12;;;;;;;35.95;19.75;;;;;;;12.38;100.00;100571.97;5091717;28;20035;-72
2022/10/15 05:34:38;;;;;;;33.92;17.67;;;;;;;12.40;100.00;100569.91;5091477;28;20122;-71
2022/10/15 05:37:03;;;;;;;32.90;17.10;;;;;;;12.41;100.00;100572.34;5091005;28;20115;-72
2022/10/15 05:39:28;;;;;;;32.38;17.55;;;;;;;12.42;100.00;100570.53;5091382;28;20467;-71
2022/10/15 05:41:54;;;;;;;32.78;16.40;;;;;;;12.42;100.00;100568.66;5091600;28;20055;-72
2022/10/15 05:44:19;;;;;;;30.55;16.05;;;;;;;12.44;100.00;100563.91;5091445;28;20016;-72
2022/10/15 05:46:44;;;;;;;31.05;17.02;;;;;;;12.45;100.00;100560.19;5091496;28;20032;-72
2022/10/15 05:49:10;;;;;;;28.60;15.13;;;;;;;12.47;100.00;100563.47;5091379;28;20020;-72
2022/10/15 05:51:36;;;;;;;48.13;18.95;;;;;;;12.47;100.00;100568.00;5091185;28;20056;-72
2022/10/15 05:54:02;;;;;;;28.20;13.48;;;;;;;12.49;100.00;100569.41;5091134;28;20024;-71
2022/10/15 05:56:27;;;;;;;31.00;17.80;;;;;;;12.50;100.00;100570.25;5091053;28;20077;-72
2022/10/15 05:58:52;;;;;;;30.45;14.82;;;;;;;12.50;100.00;100564.91;5091082;28;20116;-72
2022/10/15 06:01:18;;;;;;;28.58;14.93;;;;;;;12.52;100.00;100568.16;5091081;28;20032;-71
2022/10/15 06:03:43;;;;;;;31.48;15.50;;;;;;;12.51;100.00;100563.84;5089991;28;20115;-72
2022/10/15 06:06:27;;;;;;;26.20;14.75;;;;;;;12.52;100.00;100568.16;5090747;28;20032;-71
2022/10/15 06:08:53;;;;;;;29.75;16.08;;;;;;;12.51;100.00;100561.19;5090493;28;20541;-72
2022/10/15 06:11:19;;;;;;;31.00;17.77;;;;;;;12.52;100.00;100570.84;5090886;28;20028;-72
2022/10/15 06:13:46;;;;;;;31.42;18.48;;;;;;;12.47;100.00;100558.13;5090714;28;20085;-71
2022/10/15 06:16:13;;;;;;;36.47;19.70;;;;;;;12.54;100.00;100566.09;5090624;28;20024;-71
2022/10/15 06:18:38;;;;;;;32.35;17.70;;;;;;;12.53;100.00;100569.81;5089482;28;20028;-71
2022/10/15 06:21:05;;;;;;;31.20;16.83;;;;;;;12.54;100.00;100558.06;5090599;28;20032;-72
2022/10/15 06:23:31;;;;;;;30.30;14.88;;;;;;;12.54;100.00;100559.94;5090460;28;20033;-72
2022/10/15 06:26:01;;;;;;;29.98;16.63;;;;;;;12.53;100.00;100567.16;5090513;28;20031;-71
2022/10/15 06:28:26;;;;;;;30.58;17.33;;;;;;;12.53;100.00;100564.47;5090568;28;20563;-72
2022/10/15 06:30:51;;;;;;;30.60;17.23;;;;;;;12.51;100.00;100555.84;5090403;28;20134;-72
2022/10/15 06:33:17;;;;;;;31.00;17.65;;;;;;;12.55;100.00;100556.22;5090287;28;20119;-72
2022/10/15 06:35:42;;;;;;;33.03;17.83;;;;;;;12.56;100.00;100558.69;5090507;28;20388;-72
2022/10/15 06:38:07;;;;;;;31.17;16.42;;;;;;;12.58;100.00;100561.97;5088169;28;20048;-72
2022/10/15 06:40:33;;;;;;;31.75;16.63;;;;;;;12.60;100.00;100565.25;5089906;28;20035;-72
2022/10/15 06:43:09;;;;;;;30.27;18.00;;;;;;;12.62;100.00;100579.19;5090155;28;20028;-72
2022/10/15 06:45:37;;;;;;;32.13;16.58;;;;;;;12.59;100.00;100562.78;5090158;28;20028;-72
2022/10/15 06:48:05;;;;;;;30.00;16.38;;;;;;;12.64;100.00;100566.44;5089813;28;20028;-72
2022/10/15 06:50:32;;;;;;;31.58;15.40;;;;;;;12.64;100.00;100571.78;5088767;28;20148;-72
2022/10/15 06:52:58;;;;;;;29.38;14.93;;;;;;;12.67;100.00;100571.34;5089901;28;20116;-72
2022/10/15 06:55:23;;;;;;;29.50;16.83;;;;;;;12.65;100.00;100561.91;5089652;28;20126;-72
2022/10/15 06:57:49;;;;;;;29.92;15.60;;;;;;;12.68;100.00;100561.47;5089609;28;20066;-72
2022/10/15 07:00:15;;;;;;;29.73;15.38;;;;;;;12.69;100.00;100566.59;5089861;28;20028;-72
2022/10/15 07:02:41;;;;;;;31.88;16.30;;;;;;;12.69;100.00;100563.94;5089957;28;20032;-72
2022/10/15 07:05:07;;;;;;;26.92;13.23;;;;;;;12.71;100.00;100569.06;5089981;28;20085;-72
2022/10/15 07:07:33;;;;;;;28.08;14.63;;;;;;;12.65;100.00;100557.41;5089471;28;20036;-71
2022/10/15 07:09:58;;;;;;;26.77;14.60;;;;;;;12.71;100.00;100564.53;5089575;28;20119;-71
2022/10/15 07:12:24;;;;;;;26.90;14.82;;;;;;;12.76;100.00;100565.72;5089255;28;20086;-72
2022/10/15 07:14:49;;;;;;;27.38;13.93;;;;;;;12.79;100.00;100566.13;5089560;28;20399;-72
2022/10/15 07:17:15;;;;;;;26.23;15.70;;;;;;;12.82;100.00;100568.38;5089742;28;20031;-72
2022/10/15 07:19:42;;;;;;;25.10;12.85;;;;;;;12.85;100.00;100569.78;5089581;28;20027;-72
2022/10/15 07:22:08;;;;;;;26.65;14.05;;;;;;;12.92;100.00;100563.34;5089657;28;20020;-72
2022/10/15 07:24:33;;;;;;;26.52;13.98;;;;;;;12.94;100.00;100566.63;5089918;28;20112;-72
2022/10/15 07:26:58;;;;;;;26.23;13.80;;;;;;;12.98;100.00;100563.50;5089599;28;20093;-71
2022/10/15 07:29:24;;;;;;;27.38;14.27;;;;;;;13.01;100.00;100566.53;5089090;28;20067;-71
2022/10/15 07:31:49;;;;;;;25.45;13.68;;;;;;;12.97;100.00;100567.19;5089424;28;20027;-71
2022/10/15 07:34:15;;;;;;;24.50;14.43;;;;;;;12.94;100.00;100568.47;5089455;28;20032;-71
2022/10/15 07:36:40;;;;;;;26.20;12.30;;;;;;;12.96;100.00;100569.06;5089412;28;20063;-72
2022/10/15 07:39:06;;;;;;;23.85;12.98;;;;;;;13.04;100.00;100559.94;5087512;28;20048;-70
2022/10/15 07:41:31;;;;;;;26.80;12.85;;;;;;;13.10;100.00;100545.69;5082935;28;20042;-70
2022/10/15 07:43:56;;;;;;;29.17;14.10;;;;;;;13.19;100.00;100533.63;5082867;28;20024;-70
2022/10/15 07:46:22;;;;;;;26.35;13.43;;;;;;;13.31;100.00;100531.91;5083785;28;20028;-67
2022/10/15 07:48:47;;;;;;;29.88;14.18;;;;;;;13.44;100.00;100527.41;5084846;28;20020;-66
2022/10/15 07:51:13;;;;;;;26.33;14.57;;;;;;;13.47;100.00;100527.81;5084704;28;20039;-65
2022/10/15 07:53:38;;;;;;;23.35;12.95;;;;;;;13.49;100.00;100530.25;5082279;28;20028;-65
2022/10/15 07:56:07;;;;;;;26.88;14.38;;;;;;;13.45;100.00;100535.25;5083689;28;20024;-65
2022/10/15 07:58:33;;;;;;;24.15;12.18;;;;;;;13.46;100.00;100533.38;5083979;28;20489;-65
2022/10/15 08:01:02;;;;;;;25.40;12.88;;;;;;;13.48;100.00;100537.47;5084957;28;20051;-64
2022/10/15 08:03:29;;;;;;;23.73;11.57;;;;;;;13.51;100.00;100545.06;5084362;28;20023;-65
2022/10/15 08:05:54;;;;;;;25.83;12.68;;;;;;;13.46;100.00;100542.22;5086424;28;20035;-66
2022/10/15 08:08:21;;;;;;;25.35;12.20;;;;;;;13.47;100.00;100525.13;5088386;28;20028;-65
2022/10/15 08:10:46;;;;;;;26.73;10.95;;;;;;;13.63;100.00;100525.56;5087133;28;20107;-66
2022/10/15 08:13:12;;;;;;;25.13;11.50;;;;;;;13.77;100.00;100525.16;5087797;28;20067;-66
2022/10/15 08:15:39;;;;;;;23.98;10.57;;;;;;;13.93;100.00;100525.59;5088245;28;20063;-65
2022/10/15 08:18:05;;;;;;;20.92;10.30;;;;;;;13.98;100.00;100512.31;5088105;28;20028;-65
2022/10/15 08:20:30;;;;;;;20.88;9.68;;;;;;;14.05;100.00;100529.16;5088833;28;20088;-66
2022/10/15 08:22:56;;;;;;;20.50;11.10;;;;;;;14.06;100.00;100517.34;5088876;28;20120;-66
2022/10/15 08:25:21;;;;;;;19.85;8.57;;;;;;;14.06;100.00;100517.34;5088884;28;20180;-66
2022/10/15 08:27:47;;;;;;;23.55;10.35;;;;;;;14.03;100.00;100529.34;5087337;28;20480;-66
2022/10/15 08:30:12;;;;;;;20.92;9.40;;;;;;;14.11;100.00;100519.38;5086774;28;20035;-65
2022/10/15 08:32:38;;;;;;;19.63;9.32;;;;;;;14.15;100.00;100515.19;5088284;28;20047;-65
2022/10/15 08:35:03;;;;;;;21.42;9.85;;;;;;;14.25;100.00;100521.63;5088835;28;20036;-66
2022/10/15 08:37:29;;;;;;;19.42;9.13;;;;;;;14.35;100.00;100518.38;5088534;28;20024;-66
2022/10/15 08:39:54;;;;;;;17.00;8.13;;;;;;;14.40;100.00;100509.66;5088703;28;20120;-68
2022/10/15 08:42:26;;;;;;;17.83;9.70;;;;;;;14.39;100.00;100513.38;5091969;28;20036;-69
2022/10/15 08:45:02;;;;;;;18.33;8.93;;;;;;;14.41;100.00;100506.75;5092299;28;20024;-69
2022/10/15 08:47:37;;;;;;;17.45;9.55;;;;;;;14.38;100.00;100507.22;5092307;28;20483;-69
2022/10/15 08:50:11;;;;;;;17.00;7.43;;;;;;;14.34;100.00;100506.03;5090303;28;20027;-72
2022/10/15 08:52:43;;;;;;;16.90;7.30;;;;;;;14.30;100.00;100506.69;5087538;28;20123;-70
2022/10/15 08:55:13;;;;;;;;;;;;;;;14.33;100.00;100501.72;5088508;28;20544;-71
2022/10/15 08:58:12;;;;;;;19.25;6.70;;;;;;;14.34;100.00;100497.97;5087932;28;19916;-71
2022/10/15 09:01:02;;;;;;;14.77;6.38;;;;;;;14.35;100.00;100498.78;5090047;28;20028;-70
2022/10/15 09:03:39;;;;;;;15.68;7.75;;;;;;;14.34;100.00;100491.78;5091834;28;20483;-70
2022/10/15 09:06:22;;;;;;;15.60;6.63;;;;;;;14.34;100.00;100481.88;5091926;28;20041;-70
2022/10/15 09:09:06;;;;;;;14.15;5.90;;;;;;;14.38;100.00;100483.06;5092001;28;20395;-70
2022/10/15 09:11:53;;;;;;;13.75;6.93;;;;;;;14.43;100.00;100480.47;5091306;28;20391;-71
2022/10/15 09:14:32;;;;;;;15.60;6.10;;;;;;;14.47;100.00;100478.97;5091676;28;20099;-70
2022/10/15 09:17:03;;;;;;;13.65;7.00;;;;;;;14.50;100.00;100477.69;5091875;28;20063;-71
2022/10/15 09:19:30;;;;;;;14.38;6.18;;;;;;;14.49;100.00;100473.38;5091775;28;20040;-70
2022/10/15 09:21:59;;;;;;;14.25;6.80;;;;;;;14.46;100.00;100473.81;5091639;28;20040;-70
2022/10/15 09:24:27;;;;;;;16.02;7.60;;;;;;;14.41;100.00;100477.22;5091590;28;20031;-70
2022/10/15 09:26:52;;;;;;;10.63;5.78;;;;;;;14.41;100.00;100471.06;5091620;28;20445;-70
2022/10/15 09:29:21;;;;;;;17.30;6.53;;;;;;;14.41;100.00;100471.88;5091832;28;20107;-72
2022/10/15 09:32:00;;;;;;;14.27;8.10;;;;;;;14.40;100.00;100472.09;5091700;28;20028;-70
2022/10/15 09:34:36;;;;;;;15.38;5.78;;;;;;;14.39;100.00;100467.78;5091513;28;20028;-70
2022/10/15 09:37:13;;;;;;;13.30;5.75;;;;;;;14.37;100.00;100467.19;5091589;28;20031;-73
2022/10/15 09:40:04;;;;;;;14.00;7.03;;;;;;;14.40;100.00;100459.47;5091407;28;20040;-71
2022/10/15 09:42:38;;;;;;;13.45;6.25;;;;;;;14.42;100.00;100449.34;5082197;28;20050;-70
2022/10/15 09:45:13;;;;;;;14.80;6.10;;;;;;;14.42;100.00;100454.69;5091086;28;20111;-70
2022/10/15 09:47:40;;;;;;;14.90;6.95;;;;;;;14.40;100.00;100453.28;5091034;28;20081;-70
2022/10/15 09:50:08;;;;;;;14.60;6.25;;;;;;;14.38;100.00;100450.88;5091307;28;20031;-69
2022/10/15 09:52:51;;;;;;;15.43;6.47;;;;;;;14.39;100.00;100457.03;5091274;28;20032;-69
2022/10/15 09:55:41;;;;;;;13.80;5.47;;;;;;;14.42;100.00;100448.53;5091176;28;20024;-69
2022/10/15 09:58:29;;;;;;;14.55;6.00;;;;;;;14.42;100.00;100440.47;5091014;28;20468;-69
2022/10/15 10:01:00;;;;;;;20.30;7.47;;;;;;;14.43;100.00;100450.97;5090465;28;20059;-69
2022/10/15 10:03:29;;;;;;;15.20;5.93;;;;;;;14.34;100.00;100436.25;5090909;28;20958;-69
2022/10/15 10:06:10;;;;;;;12.25;6.00;;;;;;;14.36;100.00;100447.59;5090536;28;20023;-69
2022/10/15 10:08:56;;;;;;;13.60;5.77;;;;;;;14.33;100.00;100437.31;5090959;28;20032;-70
2022/10/15 10:11:24;;;;;;;12.88;5.35;;;;;;;14.31;100.00;100439.41;5090872;28;20028;-70
2022/10/15 10:13:58;;;;;;;12.55;5.63;;;;;;;14.30;100.00;100437.75;5090838;28;20034;-69
2022/10/15 10:16:25;;;;;;;14.80;6.05;;;;;;;14.29;100.00;100432.66;5090875;28;20481;-70
2022/10/15 10:19:13;;;;;;;12.13;5.60;;;;;;;14.32;100.00;100429.50;5090541;28;20020;-70
2022/10/15 10:21:41;;;;;;;12.40;6.07;;;;;;;14.32;100.00;100433.00;5090734;28;20024;-70
2022/10/15 10:24:27;;;;;;;10.63;4.93;;;;;;;14.32;100.00;100430.31;5090593;28;20433;-70
2022/10/15 10:26:53;;;;;;;11.43;4.72;;;;;;;14.29;100.00;100429.97;5088489;28;20035;-71
2022/10/15 10:29:21;;;;;;;10.20;5.07;;;;;;;14.28;100.00;100425.63;5085350;28;20020;-74
2022/10/15 10:31:50;;;;;;;13.23;6.00;;;;;;;14.34;100.00;100424.72;5085887;28;20438;-72
2022/10/15 10:34:20;;;;;;;12.23;6.15;;;;;;;14.42;100.00;100422.50;5084911;28;20074;-72
2022/10/15 10:36:51;;;;;;;12.30;6.72;;;;;;;14.46;100.00;100431.75;5085830;28;20035;-71
2022/10/15 10:39:29;;;;;;;10.37;4.77;;;;;;;14.47;100.00;100428.00;5085720;28;20487;-72
2022/10/15 10:41:59;;;;;;;9.63;4.95;;;;;;;14.52;100.00;100432.66;5085582;28;20273;-69
2022/10/15 10:44:24;;;;;;;11.90;5.03;;;;;;;14.58;100.00;100430.94;5085666;28;20116;-70
2022/10/15 10:47:08;;;;;;;9.03;4.23;;;;;;;14.59;100.00;100432.56;5085855;28;20116;-70
2022/10/15 10:49:47;;;;;;;9.18;5.30;;;;;;;14.58;100.00;100431.75;5085494;28;20401;-70
2022/10/15 10:52:24;;;;;;;9.77;4.50;;;;;;;14.63;100.00;100425.69;5085681;28;20031;-66
2022/10/15 10:54:59;;;;;;;8.88;4.38;;;;;;;14.69;100.00;100435.50;5085343;28;20052;-66
2022/10/15 10:57:41;;;;;;;5.97;3.28;;;;;;;14.64;100.00;100428.13;5085433;28;20043;-66
2022/10/15 11:00:10;;;;;;;7.90;3.80;;;;;;;14.68;100.00;100439.22;5085520;28;20051;-66
2022/10/15 11:02:40;;;;;;;7.57;3.97;;;;;;;14.70;100.00;100429.09;5083670;28;20031;-66
2022/10/15 11:05:05;;;;;;;4.75;2.90;;;;;;;14.75;100.00;100425.69;5084406;28;20115;-66
2022/10/15 11:07:46;;;;;;;4.07;2.85;;;;;;;14.73;100.00;100415.19;5082894;28;21427;-66
2022/10/15 11:10:26;;;;;;;5.57;2.78;;;;;;;14.80;100.00;100418.56;5085131;28;20031;-67
2022/10/15 11:13:16;;;;;;;4.50;2.47;;;;;;;14.84;100.00;100425.09;5085056;28;20019;-66
2022/10/15 11:15:52;;;;;;;4.25;3.15;;;;;;;14.86;100.00;100412.25;5085819;28;20929;-66